Time;durP1;ratioP1;P1;durP2;ratioP2;P2;SDS_P1;SDS_P2;PMS_P1;PMS_P2;Temp;Humidity;BMP_temperature;BMP_pressure;BME280_temperature;BME280_humidity;BME280_pressure;Samples;Min_cycle;Max_cycle;Signal;HPM_P1;HPM_P2
2021/08/24 00:00:33;;;;;;;;;;;19.10;99.90;;;18.82;100.00;100465.25;5072775;28;20333;-56
2021/08/24 00:03:01;;;;;;;;;;;19.00;99.90;;;18.80;100.00;100464.81;5072489;28;19932;-57
2021/08/24 00:05:31;;;;;;;;;;;19.00;99.90;;;18.83;100.00;100469.59;5072519;28;19931;-56
2021/08/24 00:07:59;;;;;;;;;;;19.00;99.90;;;18.85;100.00;100473.56;5072476;28;19925;-56
2021/08/24 00:10:29;;;;;;;;;;;19.00;99.90;;;18.86;100.00;100475.16;5072602;28;19924;-57
2021/08/24 00:12:57;;;;;;;;;;;;;;;18.84;100.00;100468.47;5072737;28;19932;-57
2021/08/24 00:15:27;;;;;;;;;;;19.00;99.90;;;18.85;100.00;100464.53;5072494;28;19932;-58
2021/08/24 00:17:55;;;;;;;;;;;19.00;99.90;;;18.81;100.00;100469.16;5079368;28;19924;-57
2021/08/24 00:20:25;;;;;;;;;;;19.00;99.90;;;18.79;100.00;100465.97;5072348;28;19925;-57
2021/08/24 00:22:53;;;;;;;;;;;19.00;99.90;;;18.78;100.00;100472.59;5072133;28;20287;-57
2021/08/24 00:25:21;;;;;;;;;;;19.00;99.90;;;18.78;100.00;100469.88;5072148;28;19924;-57
2021/08/24 00:27:49;;;;;;;;;;;19.00;99.90;;;18.78;100.00;100467.94;5072083;28;19931;-57
2021/08/24 00:30:16;;;;;;;;;;;19.00;99.90;;;18.81;100.00;100464.47;5072392;28;19924;-57
2021/08/24 00:32:46;;;;;;;;;;;19.00;99.90;;;18.87;100.00;100460.34;5071552;28;19924;-57
2021/08/24 00:35:13;;;;;;;;;;;19.00;99.90;;;18.92;100.00;100467.47;5072252;28;19935;-57
2021/08/24 00:37:41;;;;;;;;;;;19.10;99.90;;;18.86;100.00;100466.94;5072140;28;19924;-59
2021/08/24 00:40:10;;;;;;;;;;;19.10;99.90;;;18.81;100.00;100463.69;5072067;28;20471;-59
2021/08/24 00:42:38;;;;;;;;;;;19.00;99.90;;;18.79;100.00;100460.47;5071817;28;19940;-57
2021/08/24 00:45:08;;;;;;;;;;;19.00;99.90;;;18.72;100.00;100463.06;5071852;28;19931;-59
2021/08/24 00:47:36;;;;;;;;;;;18.90;99.90;;;18.77;100.00;100455.38;5071872;28;19925;-56
2021/08/24 00:50:10;;;;;;;;;;;19.00;99.90;;;18.83;100.00;100453.16;5072088;28;19943;-58
2021/08/24 00:52:38;;;;;;;;;;;19.00;99.90;;;18.89;100.00;100457.22;5071662;28;19925;-59
2021/08/24 00:55:07;;;;;;;;;;;19.00;99.90;;;18.85;100.00;100445.38;5071706;28;20287;-57
2021/08/24 00:57:35;;;;;;;;;;;19.00;99.90;;;18.82;100.00;100454.28;5071830;28;19970;-56
2021/08/24 01:00:05;;;;;;;;;;;19.00;99.90;;;18.77;100.00;100457.31;5071912;28;19928;-56
2021/08/24 01:02:32;;;;;;;;;;;19.00;99.90;;;18.75;100.00;100456.88;5071314;28;19924;-57
2021/08/24 01:05:00;;;;;;;;;;;18.90;99.90;;;18.77;100.00;100454.56;5071991;28;19936;-57
2021/08/24 01:07:37;;;;;;;;;;;18.90;99.90;;;18.74;100.00;100452.53;5071744;28;19924;-57
2021/08/24 01:10:10;;;;;;;;;;;18.90;99.90;;;18.78;100.00;100451.50;5071733;28;19924;-57
2021/08/24 01:12:55;;;;;;;;;;;19.00;99.90;;;18.79;100.00;100444.03;5071438;28;19982;-57
2021/08/24 01:15:31;;;;;;;;;;;19.00;99.90;;;18.82;100.00;100443.34;5071746;28;20375;-57
2021/08/24 01:18:03;;;;;;;;;;;19.00;99.90;;;18.84;100.00;100443.81;5071540;28;19925;-57
2021/08/24 01:20:34;;;;;;;;;;;19.00;99.90;;;18.89;100.00;100427.88;5071691;28;20291;-57
2021/08/24 01:23:18;;;;;;;;;;;19.10;99.90;;;18.92;100.00;100429.13;5071492;28;19924;-57
2021/08/24 01:25:51;;;;;;;;;;;19.10;99.90;;;18.95;100.00;100428.41;5071795;28;19933;-57
2021/08/24 01:28:25;;;;;;;;;;;19.20;99.90;;;18.91;100.00;100420.09;5072446;28;19932;-57
2021/08/24 01:31:23;;;;;;;;;;;19.10;99.90;;;18.87;100.00;100418.44;5075395;28;19935;-57
2021/08/24 01:33:58;;;;;;;;;;;19.10;99.90;;;18.80;100.00;100421.78;5068357;28;20291;-58
2021/08/24 01:36:28;;;;;;;;;;;19.00;99.90;;;18.79;100.00;100420.19;5075812;28;19931;-56
2021/08/24 01:39:00;;;;;;;;;;;19.00;99.90;;;18.82;100.00;100415.94;5074123;28;19931;-57
2021/08/24 11:45:00;;;;;;;;;;;24.50;99.90;;;24.13;100.00;100383.56;5065278;28;19982;-59
2021/08/24 11:47:32;;;;;;;;;;;24.50;99.90;;;24.20;100.00;100381.59;5073197;28;19925;-59
2021/08/24 11:50:06;;;;;;;;;;;24.70;99.90;;;24.30;100.00;100374.53;5072912;28;19924;-59
2021/08/24 11:52:38;;;;;;;;;;;24.70;99.90;;;24.41;100.00;100369.78;5072602;28;19960;-58
2021/08/24 11:55:11;;;;;;;;;;;24.90;99.90;;;24.50;100.00;100370.19;5072218;28;19986;-59
2021/08/24 11:57:42;;;;;;;;;;;25.00;99.90;;;24.51;100.00;100357.94;5072924;28;20402;-59
2021/08/24 12:00:13;;;;;;;;;;;25.10;99.90;;;24.54;100.00;100361.91;5072968;28;20387;-59
2021/08/24 12:02:44;;;;;;;;;;;25.00;99.90;;;24.67;100.00;100357.56;5072459;28;19932;-59
2021/08/24 12:05:18;;;;;;;;;;;25.10;99.90;;;24.95;100.00;100352.03;5072475;28;19947;-58
2021/08/24 12:07:54;;;;;;;;;;;25.40;99.90;;;25.23;100.00;100354.72;5071110;28;19924;-56
2021/08/24 12:10:27;;;;;;;;;;;25.70;99.90;;;25.31;100.00;100350.75;5071462;28;19924;-59
2021/08/24 12:12:57;;;;;;;;;;;25.80;99.90;;;25.34;100.00;100347.19;5071104;28;20023;-59
2021/08/24 12:15:44;;;;;;;;;;;25.90;99.90;;;25.36;100.00;100344.78;5071152;28;19925;-58
2021/08/24 12:18:23;;;;;;;;;;;25.90;99.90;;;25.31;100.00;100348.00;5072810;28;20278;-58
2021/08/24 12:20:52;;;;;;;;;;;25.80;99.90;;;25.37;100.00;100345.59;5072287;28;19928;-59
2021/08/24 12:23:35;;;;;;;;;;;25.80;99.90;;;25.32;100.00;100337.72;5071768;28;19924;-59
2021/08/24 12:26:21;;;;;;;;;;;25.80;99.90;;;25.41;100.00;100340.84;5072312;28;19935;-59
2021/08/24 12:28:49;;;;;;;;;;;25.90;99.90;;;25.35;100.00;100343.22;5071499;28;19924;-59
2021/08/24 12:31:43;;;;;;;;;;;25.90;99.90;;;25.32;100.00;100341.25;5071390;28;19951;-58
2021/08/24 12:34:49;;;;;;;;;;;25.90;99.90;;;25.33;100.00;100345.59;5057185;28;19928;-57
2021/08/24 12:37:53;;;;;;;;;;;25.90;99.90;;;25.38;100.00;100347.19;5072430;28;19932;-57
2021/08/24 12:40:59;;;;;;;;;;;25.90;99.90;;;25.34;100.00;100341.66;5062770;28;19925;-59
2021/08/24 12:43:40;;;;;;;;;;;26.00;99.90;;;25.38;100.00;100347.19;5071425;28;19963;-59
2021/08/24 12:46:32;;;;;;;;;;;25.90;99.90;;;25.48;100.00;100340.78;5071968;28;19924;-59
2021/08/24 12:49:38;;;;;;;;;;;26.00;99.90;;;25.67;100.00;100326.50;5052894;28;19924;-59
2021/08/24 12:52:36;;;;;;;;;;;26.10;99.90;;;25.78;100.00;100335.53;5071775;28;19958;-59
2021/08/24 12:55:28;;;;;;;;;;;26.40;99.90;;;25.69;100.00;100335.19;5071425;28;19939;-59
2021/08/24 12:58:02;;;;;;;;;;;26.30;99.90;;;25.45;100.00;100330.53;5071375;28;20391;-59
2021/08/24 13:00:31;;;;;;;;;;;;;;;25.40;100.00;100328.19;5071762;28;19954;-59
2021/08/24 13:03:02;;;;;;;;;;;25.90;99.90;;;25.32;100.00;100321.09;5071541;28;19928;-59
2021/08/24 13:05:32;;;;;;;;;;;25.90;99.90;;;25.53;100.00;100321.81;5071425;28;19929;-59
2021/08/24 13:08:09;;;;;;;;;;;26.00;99.90;;;25.91;100.00;100320.03;5071962;28;20010;-59
2021/08/24 13:10:39;;;;;;;;;;;26.40;99.90;;;26.20;100.00;100315.13;5072026;28;20284;-59
2021/08/24 13:13:57;;;;;;;;;;;26.70;99.90;;;26.61;100.00;100309.63;5071431;28;20227;-59
2021/08/24 13:16:31;;;;;;;;;;;27.10;99.90;;;26.16;100.00;100308.03;4990670;28;19933;-59
2021/08/24 13:19:00;;;;;;;;;;;26.80;99.90;;;25.58;100.00;100304.00;5040161;28;19925;-59
2021/08/24 13:21:31;;;;;;;;;;;26.30;99.90;;;25.68;100.00;100313.44;5051656;28;19948;-59
2021/08/24 13:24:04;;;;;;;;;;;26.20;99.90;;;25.83;100.00;100304.66;5058309;28;19924;-59
2021/08/24 13:26:37;;;;;;;;;;;26.30;99.90;;;25.79;100.00;100309.44;5075863;28;20135;-56
2021/08/24 13:29:05;;;;;;;;;;;26.40;99.90;;;25.51;100.00;100309.56;5076009;28;19931;-59
2021/08/24 13:31:42;;;;;;;;;;;26.10;99.90;;;25.64;100.00;100312.69;5075741;28;19932;-59
2021/08/24 13:34:19;;;;;;;;;;;26.10;99.90;;;25.79;100.00;100303.88;5074753;28;19924;-59
2021/08/24 13:36:48;;;;;;;;;;;26.20;99.90;;;25.91;100.00;100308.94;5075879;28;20288;-59
2021/08/24 13:39:17;;;;;;;;;;;26.40;99.90;;;25.93;100.00;100312.09;5075814;28;19932;-59
2021/08/24 13:41:47;;;;;;;;;;;26.40;99.90;;;26.26;100.00;100309.94;5075312;28;19925;-59
2021/08/24 13:44:17;;;;;;;;;;;26.70;99.90;;;26.55;100.00;100311.25;5074312;28;19920;-59
2021/08/24 13:46:55;;;;;;;;;;;27.00;99.90;;;26.06;100.00;100312.41;5075603;28;19928;-59
2021/08/24 13:49:23;;;;;;;;;;;26.70;99.90;;;25.84;100.00;100306.22;5075637;28;19924;-59
2021/08/24 13:51:53;;;;;;;;;;;26.40;99.90;;;25.71;100.00;100307.09;5075082;28;19930;-59
2021/08/24 13:54:27;;;;;;;;;;;26.30;99.90;;;25.47;100.00;100317.09;5074266;28;19932;-59
2021/08/24 13:56:55;;;;;;;;;;;26.10;99.90;;;25.44;100.00;100315.13;5075559;28;19928;-59
2021/08/24 13:59:29;;;;;;;;;;;26.00;99.90;;;25.59;100.00;100305.59;5075190;28;20299;-59
2021/08/24 14:01:59;;;;;;;;;;;26.10;99.90;;;25.52;100.00;100316.69;5074554;28;19935;-59
2021/08/24 14:04:31;;;;;;;;;;;26.10;99.90;;;25.63;100.00;100308.31;5074245;28;19928;-59
2021/08/24 14:07:02;;;;;;;;;;;26.10;99.90;;;25.55;100.00;100318.66;5075320;28;19954;-58
2021/08/24 14:09:33;;;;;;;;;;;26.00;99.90;;;25.24;100.00;100309.25;5075251;28;19924;-58
2021/08/24 14:12:03;;;;;;;;;;;25.80;99.90;;;25.15;100.00;100302.56;5074786;28;19931;-59
2021/08/24 14:14:43;;;;;;;;;;;25.60;99.90;;;24.99;100.00;100303.00;5074035;28;20057;-59
2021/08/24 14:17:23;;;;;;;;;;;25.50;99.90;;;24.96;100.00;100292.75;5075253;28;19948;-59
2021/08/24 14:19:51;;;;;;;;;;;25.40;99.90;;;25.05;100.00;100289.59;5074778;28;19924;-59
2021/08/24 14:22:19;;;;;;;;;;;25.50;99.90;;;25.58;100.00;100290.16;5074576;28;19951;-59
2021/08/24 14:24:47;;;;;;;;;;;25.90;99.90;;;26.27;100.00;100281.00;5073839;28;19928;-59
2021/08/24 14:27:17;;;;;;;;;;;26.60;99.90;;;26.55;100.00;100278.78;5074879;28;19935;-59
2021/08/24 14:29:44;;;;;;;;;;;27.30;99.90;;;26.83;100.00;100277.75;5074666;28;20360;-59
2021/08/24 14:32:29;;;;;;;;;;;27.40;99.90;;;26.85;100.00;100271.75;5074304;28;19924;-59
2021/08/24 14:34:57;;;;;;;;;;;27.40;99.90;;;26.83;100.00;100266.63;5073583;28;20011;-59
2021/08/24 14:37:26;;;;;;;;;;;27.40;99.90;;;26.65;100.00;100271.56;5073941;28;19924;-59
2021/08/24 14:39:57;;;;;;;;;;;27.30;99.90;;;26.45;100.00;100278.88;5074462;28;19948;-59
2021/08/24 14:42:30;;;;;;;;;;;27.10;99.90;;;26.12;100.00;100276.75;5074315;28;20370;-58
2021/08/24 14:44:59;;;;;;;;;;;26.90;99.90;;;25.88;100.00;100270.97;5073328;28;19928;-59
2021/08/24 14:47:33;;;;;;;;;;;26.60;99.90;;;25.72;100.00;100265.16;5074443;28;19959;-58
2021/08/24 14:50:02;;;;;;;;;;;26.40;99.90;;;25.62;100.00;100257.72;5074239;28;20291;-59
2021/08/24 14:52:33;;;;;;;;;;;26.20;99.90;;;25.49;100.00;100260.16;5074093;28;19928;-59
2021/08/24 14:55:05;;;;;;;;;;;26.10;99.90;;;25.35;100.00;100257.41;5073368;28;19924;-59
2021/08/24 14:57:48;;;;;;;;;;;25.90;99.90;;;25.25;100.00;100260.25;5074469;28;19948;-59
2021/08/24 15:00:35;;;;;;;;;;;25.80;99.90;;;25.13;100.00;100258.72;5074064;28;20326;-59
2021/08/24 15:03:17;;;;;;;;;;;25.70;99.90;;;25.16;100.00;100255.16;5073477;28;20197;-59
2021/08/24 15:05:46;;;;;;;;;;;25.70;99.90;;;25.05;100.00;100248.84;5073907;28;19928;-59
2021/08/24 15:08:17;;;;;;;;;;;25.60;99.90;;;24.97;100.00;100253.63;5074295;28;19932;-59
2021/08/24 15:10:47;;;;;;;;;;;25.60;99.90;;;25.02;100.00;100253.22;5073711;28;19925;-59
2021/08/24 15:13:20;;;;;;;;;;;25.60;99.90;;;25.04;100.00;100254.78;5073391;28;19933;-59
2021/08/24 15:15:49;;;;;;;;;;;25.50;99.90;;;25.09;100.00;100252.41;5074058;28;19928;-59
2021/08/24 15:18:24;;;;;;;;;;;25.60;99.90;;;24.97;100.00;100256.41;5074096;28;19939;-59
2021/08/24 15:20:57;;;;;;;;;;;25.50;99.90;;;24.88;100.00;100242.22;5073512;28;19924;-59
2021/08/24 15:23:27;;;;;;;;;;;25.40;99.90;;;24.90;100.00;100248.13;5072726;28;19932;-59
2021/08/24 15:26:04;;;;;;;;;;;25.40;99.90;;;24.85;100.00;100244.97;5073652;28;19932;-58
2021/08/24 15:28:32;;;;;;;;;;;25.40;99.90;;;24.77;100.00;100246.16;5073879;28;19970;-59
2021/08/24 15:31:06;;;;;;;;;;;25.30;99.90;;;24.67;100.00;100242.22;5073235;28;20313;-59
2021/08/24 15:33:46;;;;;;;;;;;25.20;99.90;;;24.40;100.00;100241.09;5072716;28;19943;-59
2021/08/24 15:36:15;;;;;;;;;;;25.00;99.90;;;24.24;100.00;100246.22;5073616;28;19924;-59
2021/08/24 15:38:43;;;;;;;;;;;;;;;23.93;100.00;100253.28;5073555;28;19925;-58
2021/08/24 15:41:15;;;;;;;;;;;24.50;99.90;;;23.73;100.00;100252.88;5072842;28;19929;-58
2021/08/24 15:43:43;;;;;;;;;;;24.30;99.90;;;23.53;100.00;100254.41;5072108;28;19928;-59
2021/08/24 15:46:11;;;;;;;;;;;;;;;23.57;100.00;100257.19;5073372;28;20371;-59
2021/08/24 15:48:39;;;;;;;;;;;24.00;99.90;;;23.57;100.00;100260.72;5073173;28;19925;-58
2021/08/24 15:51:08;;;;;;;;;;;24.00;99.90;;;23.65;100.00;100269.84;5072741;28;19924;-59
2021/08/24 15:53:36;;;;;;;;;;;24.10;99.90;;;23.68;100.00;100261.53;5072140;28;20379;-59
2021/08/24 15:56:04;;;;;;;;;;;24.10;99.90;;;23.71;100.00;100266.28;5073101;28;19991;-58
2021/08/24 15:58:32;;;;;;;;;;;24.10;99.90;;;23.69;100.00;100271.41;5073404;28;19939;-59
2021/08/24 16:00:59;;;;;;;;;;;24.10;99.90;;;23.58;100.00;100262.31;5072690;28;19925;-58
2021/08/24 16:03:27;;;;;;;;;;;24.00;99.90;;;23.30;100.00;100270.47;5071657;28;19924;-59
2021/08/24 16:05:55;;;;;;;;;;;23.80;99.90;;;23.11;100.00;100268.03;5072957;28;20292;-59
2021/08/24 16:08:24;;;;;;;;;;;23.60;99.90;;;23.11;100.00;100262.50;5073080;28;20371;-58
2021/08/24 16:10:52;;;;;;;;;;;23.50;99.90;;;23.08;100.00;100260.53;5072689;28;20307;-58
2021/08/24 16:13:20;;;;;;;;;;;23.50;99.90;;;22.96;100.00;100255.34;5071841;28;20020;-58
2021/08/24 16:15:48;;;;;;;;;;;23.40;99.90;;;23.00;100.00;100256.97;5072854;28;20322;-59
2021/08/24 16:18:34;;;;;;;;;;;23.40;99.90;;;23.00;100.00;100258.91;5072848;28;20285;-57
2021/08/24 16:21:02;;;;;;;;;;;23.40;99.90;;;22.96;100.00;100266.38;5072278;28;19924;-57
2021/08/24 16:23:30;;;;;;;;;;;23.40;99.90;;;22.76;100.00;100274.94;5071372;28;19928;-57
2021/08/24 16:25:58;;;;;;;;;;;23.20;99.90;;;22.76;100.00;100272.19;5072686;28;20372;-57
2021/08/24 16:28:26;;;;;;;;;;;23.20;99.90;;;22.84;100.00;100268.28;5072598;28;20026;-57
2021/08/24 16:30:54;;;;;;;;;;;23.20;99.90;;;22.95;100.00;100264.81;5072194;28;19932;-57
2021/08/24 16:33:23;;;;;;;;;;;23.30;99.90;;;22.93;100.00;100265.19;5071363;28;20410;-57
2021/08/24 16:35:52;;;;;;;;;;;23.30;99.90;;;23.00;100.00;100259.72;5072488;28;19924;-57
2021/08/24 16:38:21;;;;;;;;;;;23.30;99.90;;;23.13;100.00;100260.94;5072560;28;19932;-59
2021/08/24 16:40:53;;;;;;;;;;;23.40;99.90;;;23.23;100.00;100262.97;5072081;28;19925;-57
2021/08/24 16:43:23;;;;;;;;;;;23.50;99.90;;;23.29;100.00;100257.84;5071509;28;19929;-59
2021/08/24 16:45:50;;;;;;;;;;;23.60;99.90;;;23.29;100.00;100260.59;5072317;28;19924;-57
2021/08/24 16:48:18;;;;;;;;;;;23.60;99.90;;;23.33;100.00;100261.41;5072359;28;19931;-57
2021/08/24 16:50:48;;;;;;;;;;;23.60;99.90;;;23.19;100.00;100258.63;5072075;28;19994;-57
2021/08/24 16:53:15;;;;;;;;;;;23.50;99.90;;;23.00;100.00;100256.16;5071268;28;19925;-57
2021/08/24 16:55:45;;;;;;;;;;;23.40;99.90;;;22.79;100.00;100260.41;5071975;28;19925;-58
2021/08/24 16:58:13;;;;;;;;;;;23.20;99.90;;;22.66;100.00;100258.34;5072432;28;19931;-57
2021/08/24 17:00:41;;;;;;;;;;;23.10;99.90;;;22.65;100.00;100257.53;5071584;28;19936;-59
2021/08/24 17:03:09;;;;;;;;;;;23.00;99.90;;;22.60;100.00;100265.34;5071238;28;19928;-59
2021/08/24 17:05:38;;;;;;;;;;;23.00;99.90;;;22.62;100.00;100263.00;5071666;28;19932;-59
2021/08/24 17:08:08;;;;;;;;;;;22.90;99.90;;;22.58;100.00;100257.47;5072267;28;19931;-59
2021/08/24 17:10:36;;;;;;;;;;;22.90;99.90;;;22.57;100.00;100255.88;5071767;28;20376;-59
2021/08/24 17:13:04;;;;;;;;;;;22.90;99.90;;;22.62;100.00;100251.97;5071344;28;19970;-59
2021/08/24 17:15:36;;;;;;;;;;;22.90;99.90;;;22.60;100.00;100249.63;5071480;28;20372;-59
2021/08/24 17:18:04;;;;;;;;;;;23.00;99.90;;;22.42;100.00;100256.97;5072269;28;20337;-59
2021/08/24 17:20:32;;;;;;;;;;;22.80;99.90;;;22.25;100.00;100257.63;5071870;28;20307;-59
2021/08/24 17:23:00;;;;;;;;;;;;;;;22.16;100.00;100257.16;5071297;28;19932;-57
2021/08/24 17:25:40;;;;;;;;;;;22.60;99.90;;;22.06;100.00;100263.38;5071312;28;19924;-57
2021/08/24 17:28:11;;;;;;;;;;;22.50;99.90;;;22.08;100.00;100261.81;5072040;28;19935;-57
2021/08/24 17:30:39;;;;;;;;;;;22.40;99.90;;;22.18;100.00;100260.31;5071722;28;20395;-57
2021/08/24 17:33:07;;;;;;;;;;;22.50;99.90;;;22.14;100.00;100265.00;5071350;28;20280;-57
2021/08/24 17:35:35;;;;;;;;;;;22.40;99.90;;;22.12;100.00;100257.13;5071076;28;19940;-57
2021/08/24 17:38:04;;;;;;;;;;;22.40;99.90;;;22.15;100.00;100255.56;5071928;28;20387;-57
2021/08/24 17:40:34;;;;;;;;;;;22.40;99.90;;;22.07;100.00;100265.72;5071743;28;20284;-57
2021/08/24 17:43:04;;;;;;;;;;;22.40;99.90;;;22.01;100.00;100258.97;5071279;28;19931;-57
2021/08/24 17:45:34;;;;;;;;;;;22.30;99.90;;;21.91;100.00;100256.16;5071368;28;19931;-57
2021/08/24 17:48:07;;;;;;;;;;;22.30;99.90;;;21.84;100.00;100256.03;5071888;28;19924;-57
2021/08/24 17:50:42;;;;;;;;;;;22.20;99.90;;;21.79;100.00;100260.72;5071369;28;19982;-58
2021/08/24 17:53:11;;;;;;;;;;;22.10;99.90;;;21.73;100.00;100258.72;5070836;28;20390;-57
2021/08/24 17:55:39;;;;;;;;;;;22.10;99.90;;;21.70;100.00;100257.47;5071201;28;19931;-57
2021/08/24 17:58:09;;;;;;;;;;;22.00;99.90;;;21.73;100.00;100258.72;5071856;28;19924;-57
2021/08/24 18:00:37;;;;;;;;;;;22.00;99.90;;;21.67;100.00;100260.22;5071328;28;19931;-57
2021/08/24 18:03:08;;;;;;;;;;;22.00;99.90;;;21.66;100.00;100256.66;5070762;28;19931;-57
2021/08/24 18:05:43;;;;;;;;;;;22.00;99.90;;;21.65;100.00;100259.78;5070989;28;19967;-57
2021/08/24 18:08:11;;;;;;;;;;;21.90;99.90;;;21.57;100.00;100258.94;5071778;28;19928;-57
2021/08/24 18:10:39;;;;;;;;;;;21.90;99.90;;;21.56;100.00;100253.78;5071347;28;19938;-57
2021/08/24 18:13:09;;;;;;;;;;;21.80;99.90;;;21.54;100.00;100251.44;5074281;28;19931;-57
2021/08/24 18:15:39;;;;;;;;;;;21.80;99.90;;;21.49;100.00;100251.75;5074673;28;19932;-57
2021/08/24 18:18:07;;;;;;;;;;;21.70;99.90;;;21.47;100.00;100253.31;5075200;28;19930;-57
2021/08/24 18:20:35;;;;;;;;;;;21.70;99.90;;;21.46;100.00;100252.50;5074610;28;19932;-57
2021/08/24 18:23:03;;;;;;;;;;;21.70;99.90;;;21.45;100.00;100256.44;5074230;28;20379;-57
2021/08/24 18:25:33;;;;;;;;;;;21.70;99.90;;;21.48;100.00;100254.91;5074081;28;19924;-57
2021/08/24 18:28:02;;;;;;;;;;;21.70;99.90;;;21.50;100.00;100258.06;5075050;28;20029;-57
2021/08/24 18:30:31;;;;;;;;;;;21.60;99.90;;;21.42;100.00;100256.41;5074616;28;19928;-57
2021/08/24 18:32:59;;;;;;;;;;;21.60;99.90;;;21.35;100.00;100265.34;5074227;28;20007;-57
2021/08/24 18:35:30;;;;;;;;;;;21.50;99.90;;;21.28;100.00;100267.25;5073919;28;19925;-57
2021/08/24 18:37:58;;;;;;;;;;;21.50;99.90;;;21.22;100.00;100266.75;5074969;28;20386;-57
2021/08/24 18:40:28;;;;;;;;;;;21.40;99.90;;;21.16;100.00;100268.25;5074346;28;19943;-57
2021/08/24 18:42:59;;;;;;;;;;;21.40;99.90;;;21.07;100.00;100267.72;5073977;28;20031;-57
2021/08/24 18:45:29;;;;;;;;;;;21.30;99.90;;;21.06;100.00;100257.91;5073650;28;20398;-57
2021/08/24 18:48:00;;;;;;;;;;;21.30;99.90;;;21.00;100.00;100264.91;5074742;28;19931;-57
2021/08/24 18:50:32;;;;;;;;;;;21.10;99.90;;;20.99;100.00;100255.84;5074229;28;19931;-57
2021/08/24 18:53:00;;;;;;;;;;;21.20;99.90;;;20.98;100.00;100267.22;5077029;28;20002;-57
2021/08/24 18:55:32;;;;;;;;;;;21.20;99.90;;;21.03;100.00;100266.91;5073564;28;20379;-57
2021/08/24 18:58:00;;;;;;;;;;;21.20;99.90;;;21.00;100.00;100271.19;5074636;28;20389;-57
2021/08/24 19:00:28;;;;;;;;;;;21.20;99.90;;;20.99;100.00;100266.84;5074116;28;19924;-57
2021/08/24 19:02:57;;;;;;;;;;;21.10;99.90;;;20.93;100.00;100273.03;5073563;28;19928;-57
2021/08/24 19:05:27;;;;;;;;;;;21.10;99.90;;;21.01;100.00;100274.72;5073166;28;19931;-57
2021/08/24 19:07:55;;;;;;;;;;;21.00;99.90;;;20.99;100.00;100272.34;5074393;28;19934;-57
2021/08/24 19:10:24;;;;;;;;;;;21.20;99.90;;;20.99;100.00;100275.09;5073956;28;19925;-57
2021/08/24 19:12:57;;;;;;;;;;;21.10;99.90;;;20.98;100.00;100276.25;5073453;28;19948;-57
2021/08/24 19:15:28;;;;;;;;;;;21.10;99.90;;;21.00;100.00;100273.16;5073048;28;20390;-57
2021/08/24 19:17:57;;;;;;;;;;;21.10;99.90;;;20.92;100.00;100279.69;5074076;28;19925;-57
2021/08/24 19:20:27;;;;;;;;;;;;;;;20.89;100.00;100273.00;5073113;28;20208;-57
2021/08/24 19:22:55;;;;;;;;;;;21.10;99.90;;;20.82;100.00;100278.41;5072665;28;19928;-57
2021/08/24 19:25:25;;;;;;;;;;;21.00;99.90;;;20.84;100.00;100281.56;5072865;28;20319;-57
2021/08/24 19:27:53;;;;;;;;;;;21.00;99.90;;;20.84;100.00;100289.81;5072020;28;19924;-57
2021/08/24 19:30:22;;;;;;;;;;;21.00;99.90;;;20.88;100.00;100278.88;5075356;28;19928;-57
2021/08/24 19:32:50;;;;;;;;;;;21.00;99.90;;;20.82;100.00;100283.91;5083172;28;19932;-57
2021/08/24 19:35:21;;;;;;;;;;;21.00;99.90;;;20.83;100.00;100287.41;5073256;28;20023;-57
2021/08/24 19:37:49;;;;;;;;;;;21.00;99.90;;;20.78;100.00;100285.78;5072303;28;19931;-57
2021/08/24 19:40:18;;;;;;;;;;;21.00;99.90;;;20.82;100.00;100288.59;5076650;28;19948;-57
2021/08/24 19:42:46;;;;;;;;;;;21.00;99.90;;;20.78;100.00;100288.53;5072571;28;20245;-57
2021/08/24 19:45:17;;;;;;;;;;;20.90;99.90;;;20.73;100.00;100294.38;5072256;28;19935;-57
2021/08/24 19:47:45;;;;;;;;;;;20.90;99.90;;;20.71;100.00;100296.66;5073398;28;20284;-57
2021/08/24 19:50:13;;;;;;;;;;;20.90;99.90;;;20.77;100.00;100297.13;5073213;28;20367;-57
2021/08/24 19:52:43;;;;;;;;;;;21.20;99.90;;;20.74;100.00;100298.69;5072439;28;19955;-57
2021/08/24 19:55:14;;;;;;;;;;;20.90;99.90;;;20.77;100.00;100305.38;5072112;28;19924;-57
2021/08/24 19:57:41;;;;;;;;;;;20.90;99.90;;;20.78;100.00;100296.78;5073192;28;19925;-57
2021/08/24 20:00:11;;;;;;;;;;;20.90;99.90;;;20.75;100.00;100300.28;5073056;28;20265;-57
2021/08/24 20:02:38;;;;;;;;;;;;;;;20.77;100.00;100306.19;5072314;28;20295;-58
2021/08/24 20:05:07;;;;;;;;;;;20.90;99.90;;;20.68;100.00;100306.44;5071748;28;19955;-57
2021/08/24 20:07:37;;;;;;;;;;;20.80;99.90;;;20.64;100.00;100302.84;5072758;28;19929;-58
2021/08/24 20:10:07;;;;;;;;;;;20.80;99.90;;;20.64;100.00;100299.31;5072740;28;19982;-58
2021/08/24 20:12:35;;;;;;;;;;;20.80;99.90;;;20.62;100.00;100307.13;5072105;28;20407;-58
2021/08/24 20:15:04;;;;;;;;;;;20.80;99.90;;;20.62;100.00;100305.19;5071762;28;19935;-58
2021/08/24 20:17:31;;;;;;;;;;;20.80;99.90;;;20.58;100.00;100323.56;5072856;28;20019;-58
2021/08/24 20:20:02;;;;;;;;;;;;;;;20.56;100.00;100314.09;5072673;28;19930;-58
2021/08/24 20:22:31;;;;;;;;;;;20.70;99.90;;;20.62;100.00;100312.63;5071889;28;19931;-58
2021/08/24 20:24:59;;;;;;;;;;;20.70;99.90;;;20.64;100.00;100315.78;5071688;28;19925;-58
2021/08/24 20:27:28;;;;;;;;;;;20.80;99.90;;;20.62;100.00;100332.66;5072489;28;19929;-57
2021/08/24 20:29:56;;;;;;;;;;;20.70;99.90;;;20.60;100.00;100336.94;5072531;28;20042;-58
2021/08/24 20:32:24;;;;;;;;;;;20.70;99.90;;;20.57;100.00;100338.47;5071483;28;19928;-57
2021/08/24 20:34:52;;;;;;;;;;;20.70;99.90;;;20.53;100.00;100340.34;5070596;28;19936;-58
2021/08/24 20:37:19;;;;;;;;;;;20.70;99.90;;;20.55;100.00;100353.72;5072165;28;19932;-58
2021/08/24 20:39:47;;;;;;;;;;;20.70;99.90;;;20.59;100.00;100341.63;5072583;28;20299;-58
2021/08/24 20:42:15;;;;;;;;;;;20.60;99.90;;;20.52;100.00;100355.25;5071872;28;20280;-58
2021/08/24 20:44:44;;;;;;;;;;;20.70;99.90;;;20.49;100.00;100353.22;5071101;28;19980;-58
2021/08/24 20:47:12;;;;;;;;;;;20.70;99.90;;;20.50;100.00;100349.34;5072327;28;19936;-58
2021/08/24 20:49:40;;;;;;;;;;;20.60;99.90;;;20.49;100.00;100355.97;5072196;28;19936;-57
2021/08/24 20:52:08;;;;;;;;;;;20.60;99.90;;;20.49;100.00;100358.72;5071837;28;19924;-58
2021/08/24 20:54:36;;;;;;;;;;;20.60;99.90;;;20.57;100.00;100365.94;5070832;28;19936;-58
2021/08/24 20:57:04;;;;;;;;;;;20.70;99.90;;;20.62;100.00;100360.13;5072382;28;19941;-58
2021/08/24 20:59:32;;;;;;;;;;;20.70;99.90;;;20.62;100.00;100364.81;5072324;28;20363;-57
2021/08/24 21:02:01;;;;;;;;;;;20.70;99.90;;;20.54;100.00;100369.41;5071627;28;19931;-57
2021/08/24 21:04:32;;;;;;;;;;;20.60;99.90;;;20.52;100.00;100371.72;5070894;28;20015;-58
2021/08/24 21:07:00;;;;;;;;;;;20.60;99.90;;;20.56;100.00;100369.84;5072163;28;20001;-58
2021/08/24 21:09:28;;;;;;;;;;;20.60;99.90;;;20.54;100.00;100366.69;5072068;28;19931;-58
2021/08/24 21:11:56;;;;;;;;;;;20.70;99.90;;;20.48;100.00;100378.34;5071620;28;19925;-57
2021/08/24 21:14:24;;;;;;;;;;;20.60;99.90;;;20.39;100.00;100377.78;5070851;28;19932;-57
2021/08/24 21:16:51;;;;;;;;;;;20.60;99.90;;;20.39;100.00;100367.59;5071960;28;19931;-58
2021/08/24 21:19:21;;;;;;;;;;;20.50;99.90;;;20.45;100.00;100377.13;5072212;28;19932;-58
2021/08/24 21:21:49;;;;;;;;;;;20.50;99.90;;;20.39;100.00;100389.56;5071441;28;20438;-58
2021/08/24 21:24:17;;;;;;;;;;;20.50;99.90;;;20.38;100.00;100385.22;5070545;28;19920;-58
2021/08/24 21:26:46;;;;;;;;;;;20.50;99.90;;;20.40;100.00;100373.84;5071865;28;19924;-58